Time;durP1;ratioP1;P1;durP2;ratioP2;P2;SDS_P1;SDS_P2;PMS_P1;PMS_P2;Temp;Humidity;BMP_temperature;BMP_pressure;BME280_temperature;BME280_humidity;BME280_pressure;Samples;Min_cycle;Max_cycle;Signal;HPM_P1;HPM_P2
2022/08/09 04:01:12;;;;;;;3.10;2.00;;;13.90;94.50;;;;;;5564417;23;19930;-74
2022/08/09 04:03:38;;;;;;;4.75;1.90;;;13.80;94.60;;;;;;4958697;28;20493;-74
2022/08/09 04:06:05;;;;;;;3.97;2.08;;;13.90;94.70;;;;;;4956090;28;20062;-74
2022/08/09 04:08:31;;;;;;;3.55;2.00;;;13.90;95.00;;;;;;4958134;28;20036;-74
2022/08/09 04:10:57;;;;;;;4.88;1.73;;;13.90;94.50;;;;;;4957633;28;20043;-74
2022/08/09 04:13:22;;;;;;;5.22;2.65;;;13.80;94.40;;;;;;4957662;28;20047;-74
2022/08/09 04:15:48;;;;;;;3.47;2.10;;;13.80;94.50;;;;;;4957062;28;20068;-75
2022/08/09 04:18:14;;;;;;;2.83;2.15;;;13.80;95.30;;;;;;4958285;28;20032;-75
2022/08/09 04:20:40;;;;;;;4.03;2.28;;;13.90;94.80;;;;;;4957789;28;20083;-75
2022/08/09 04:23:07;;;;;;;2.88;2.25;;;13.80;94.70;;;;;;4957995;28;20446;-75
2022/08/09 04:25:32;;;;;;;2.75;2.17;;;13.80;94.70;;;;;;4957450;28;20040;-75
2022/08/09 04:27:58;;;;;;;4.80;2.38;;;13.80;95.10;;;;;;4957580;28;20031;-75
2022/08/09 04:30:23;;;;;;;6.32;2.80;;;13.90;95.20;;;;;;4956323;28;20513;-75
2022/08/09 04:32:50;;;;;;;4.55;2.20;;;14.10;95.00;;;;;;4957976;28;20036;-75
2022/08/09 04:35:16;;;;;;;5.40;2.38;;;14.00;94.60;;;;;;4956150;28;20036;-75
2022/08/09 04:37:42;;;;;;;6.45;2.33;;;14.00;94.50;;;;;;4957492;28;20036;-75
2022/08/09 04:40:09;;;;;;;2.90;2.05;;;14.00;95.00;;;;;;4957201;28;20099;-75
2022/08/09 04:42:35;;;;;;;5.35;2.20;;;14.10;94.90;;;;;;4957385;28;20477;-77
2022/08/09 04:45:01;;;;;;;2.92;2.28;;;14.10;94.30;;;;;;4955951;28;20040;-74
2022/08/09 04:47:28;;;;;;;2.47;2.10;;;14.10;94.60;;;;;;4957677;28;20458;-74
2022/08/09 04:49:54;;;;;;;3.20;2.33;;;14.10;94.40;;;;;;4957417;28;20035;-74
2022/08/09 04:52:21;;;;;;;4.25;2.15;;;14.10;94.70;;;;;;4957347;28;20047;-74
2022/08/09 04:54:47;;;;;;;2.97;2.10;;;14.00;94.50;;;;;;4957052;28;20035;-74
2022/08/09 04:57:12;;;;;;;3.65;2.20;;;14.00;94.60;;;;;;4957435;28;20040;-74
2022/08/09 04:59:38;;;;;;;6.70;3.10;;;14.00;95.00;;;;;;4957120;28;20035;-74
2022/08/09 05:02:04;;;;;;;7.57;2.47;;;14.00;94.80;;;;;;4956829;28;20047;-74
2022/08/09 05:04:30;;;;;;;3.80;2.55;;;14.10;95.00;;;;;;4957095;28;20043;-74
2022/08/09 05:06:55;;;;;;;2.67;2.05;;;14.10;94.70;;;;;;4957237;28;20490;-75
2022/08/09 05:09:21;;;;;;;4.13;2.55;;;14.20;94.70;;;;;;4957063;28;20066;-75
2022/08/09 05:11:46;;;;;;;3.67;2.10;;;14.20;94.60;;;;;;4956761;28;20398;-75
2022/08/09 05:14:12;;;;;;;4.13;2.38;;;14.20;94.50;;;;;;4957129;28;20119;-75
2022/08/09 05:16:38;;;;;;;3.28;2.47;;;14.30;94.70;;;;;;4955653;28;20047;-75
2022/08/09 05:19:04;;;;;;;4.78;2.58;;;14.40;94.80;;;;;;4956918;28;20032;-75
2022/08/09 05:21:29;;;;;;;3.55;2.50;;;14.50;94.50;;;;;;4956877;28;20039;-75
2022/08/09 05:23:55;;;;;;;4.72;2.65;;;14.70;94.30;;;;;;4956655;28;20042;-75
2022/08/09 05:26:21;;;;;;;6.43;2.67;;;14.80;93.70;;;;;;4956624;28;20038;-75
2022/08/09 05:28:47;;;;;;;5.60;2.03;;;14.90;93.70;;;;;;4956836;28;20067;-75
2022/08/09 05:31:12;;;;;;;5.07;2.38;;;15.00;93.50;;;;;;4956684;28;20073;-74
2022/08/09 05:33:38;;;;;;;5.50;2.22;;;15.20;93.00;;;;;;4956708;28;20095;-74
2022/08/09 05:36:04;;;;;;;4.65;2.15;;;15.30;92.40;;;;;;4956570;28;20043;-74
2022/08/09 05:38:30;;;;;;;6.65;2.50;;;15.40;92.30;;;;;;4956585;28;20038;-74
2022/08/09 05:40:56;;;;;;;5.72;1.90;;;15.60;92.10;;;;;;4954798;28;20489;-74
2022/08/09 05:43:21;;;;;;;3.10;2.35;;;15.60;92.10;;;;;;4956663;28;20036;-74
2022/08/09 05:45:47;;;;;;;5.70;2.30;;;15.60;92.10;;;;;;4956169;28;20152;-74
2022/08/09 05:48:13;;;;;;;4.53;2.00;;;15.70;91.70;;;;;;4956333;28;20035;-74
2022/08/09 05:50:40;;;;;;;6.43;2.50;;;15.80;92.00;;;;;;4956233;28;20394;-74
2022/08/09 05:53:06;;;;;;;6.20;2.30;;;16.00;91.00;;;;;;4954813;28;20453;-74
2022/08/09 05:55:32;;;;;;;4.03;2.42;;;16.00;91.00;;;;;;4955943;28;20095;-74
2022/08/09 05:57:57;;;;;;;2.53;1.98;;;16.20;90.90;;;;;;4956216;28;20123;-74
2022/08/09 06:00:27;;;;;;;4.90;2.55;;;16.20;91.00;;;;;;4955834;28;20473;-75
2022/08/09 06:02:59;;;;;;;3.95;2.20;;;16.20;90.90;;;;;;4954797;28;20397;-74
2022/08/09 06:05:26;;;;;;;3.67;2.60;;;16.30;90.70;;;;;;4955906;28;20039;-75
2022/08/09 06:07:51;;;;;;;2.95;2.30;;;16.40;90.80;;;;;;4956472;28;20476;-74
2022/08/09 06:10:17;;;;;;;7.13;2.45;;;16.40;90.80;;;;;;4955895;28;20043;-75
2022/08/09 06:12:43;;;;;;;3.10;2.33;;;16.50;90.90;;;;;;4956207;28;20040;-75
2022/08/09 06:15:09;;;;;;;3.15;2.20;;;16.60;90.60;;;;;;4955865;28;20036;-74
2022/08/09 06:17:34;;;;;;;3.72;2.15;;;16.70;90.60;;;;;;4955980;28;20044;-75
2022/08/09 06:20:00;;;;;;;4.15;2.60;;;16.80;90.50;;;;;;4956079;28;20035;-74
2022/08/09 06:22:26;;;;;;;6.00;2.55;;;16.80;90.30;;;;;;4954396;28;20032;-75
2022/08/09 06:24:52;;;;;;;5.53;2.55;;;16.90;90.30;;;;;;4956468;28;20509;-75
2022/08/09 06:27:17;;;;;;;6.57;2.50;;;17.00;90.20;;;;;;4954847;28;20032;-74
2022/08/09 06:29:43;;;;;;;6.05;2.90;;;17.00;90.10;;;;;;4956521;28;20557;-74
2022/08/09 06:32:09;;;;;;;3.63;2.30;;;17.10;90.10;;;;;;4956210;28;20062;-74
2022/08/09 06:34:34;;;;;;;5.53;2.15;;;17.20;90.00;;;;;;4955650;28;20402;-74
2022/08/09 06:37:00;;;;;;;7.75;2.25;;;17.40;89.40;;;;;;4955677;28;20050;-74
2022/08/09 06:39:30;;;;;;;4.00;2.25;;;17.50;89.70;;;;;;4959391;28;20032;-74
2022/08/09 06:41:56;;;;;;;4.72;2.20;;;17.50;88.90;;;;;;4957811;28;20581;-74
2022/08/09 06:44:21;;;;;;;8.40;2.38;;;17.70;88.60;;;;;;4959152;28;20092;-74
2022/08/09 06:46:49;;;;;;;4.88;2.53;;;18.00;86.10;;;;;;4957953;28;20375;-74
2022/08/09 06:49:14;;;;;;;3.20;2.10;;;18.20;86.60;;;;;;4957486;28;20409;-74
2022/08/09 06:51:40;;;;;;;7.65;2.45;;;18.40;86.50;;;;;;4958944;28;20050;-74
2022/08/09 06:54:05;;;;;;;6.57;2.28;;;18.60;84.70;;;;;;4958976;28;20036;-74
2022/08/09 06:56:31;;;;;;;6.38;2.20;;;18.80;84.90;;;;;;4957441;28;20047;-74
2022/08/09 06:58:57;;;;;;;3.95;2.05;;;18.90;84.60;;;;;;4958620;28;20489;-74
2022/08/09 07:01:22;;;;;;;3.58;2.05;;;19.10;83.20;;;;;;4958593;28;20043;-74
2022/08/09 07:03:48;;;;;;;4.35;1.92;;;19.20;83.50;;;;;;4958811;28;20028;-74
2022/08/09 07:06:13;;;;;;;6.32;2.13;;;19.40;82.50;;;;;;4958658;28;20040;-74
2022/08/09 07:08:39;;;;;;;2.45;1.90;;;19.60;82.40;;;;;;4958954;28;20082;-74
2022/08/09 07:11:05;;;;;;;3.15;2.00;;;19.70;82.00;;;;;;4958503;28;20032;-74
2022/08/09 07:13:30;;;;;;;6.07;2.38;;;19.90;82.00;;;;;;4958632;28;20119;-74
2022/08/09 07:15:56;;;;;;;3.63;1.88;;;20.10;80.00;;;;;;4958515;28;20040;-74
2022/08/09 07:18:22;;;;;;;3.65;2.17;;;20.30;81.00;;;;;;4958546;28;20035;-74
2022/08/09 07:20:49;;;;;;;4.78;2.05;;;20.40;80.30;;;;;;4958409;28;20036;-74
2022/08/09 07:23:16;;;;;;;4.57;2.00;;;20.70;78.90;;;;;;4958598;28;20031;-75
2022/08/09 07:25:41;;;;;;;7.03;2.15;;;20.90;77.40;;;;;;4958462;28;20478;-75
2022/08/09 07:28:08;;;;;;;3.88;1.77;;;21.20;76.60;;;;;;4955572;28;20047;-75
2022/08/09 07:30:33;;;;;;;4.78;2.22;;;21.50;77.00;;;;;;4957172;28;20031;-74
2022/08/09 07:32:59;;;;;;;2.88;1.92;;;21.70;74.10;;;;;;4958817;28;20163;-82
2022/08/09 07:35:25;;;;;;;2.33;1.80;;;22.00;72.70;;;;;;4959502;28;20074;-73
2022/08/09 07:37:51;;;;;;;4.63;2.13;;;22.20;73.40;;;;;;4959280;28;20028;-74
2022/08/09 07:40:18;;;;;;;7.32;1.92;;;22.40;71.90;;;;;;4956998;28;20035;-73
2022/08/09 07:42:47;;;;;;;2.72;2.00;;;22.70;71.00;;;;;;4958362;28;20498;-73
2022/08/09 07:45:12;;;;;;;3.28;1.92;;;22.80;71.40;;;;;;4954703;28;20044;-73
2022/08/09 07:47:38;;;;;;;4.88;2.10;;;23.00;69.70;;;;;;4957818;28;20044;-73
2022/08/09 07:50:04;;;;;;;3.42;1.80;;;23.30;70.00;;;;;;4956959;28;20047;-74
2022/08/09 07:52:29;;;;;;;2.13;1.80;;;23.70;68.00;;;;;;4958263;28;20063;-74
2022/08/09 07:54:55;;;;;;;5.15;1.95;;;24.00;66.90;;;;;;4955711;28;20043;-73
2022/08/09 07:57:21;;;;;;;2.58;2.20;;;24.20;68.30;;;;;;4938613;28;20050;-73
2022/08/09 07:59:46;;;;;;;2.85;1.90;;;24.30;67.20;;;;;;4938596;28;20522;-73
2022/08/09 08:02:12;;;;;;;2.70;1.80;;;24.60;66.90;;;;;;4957540;28;20041;-74
2022/08/09 08:04:38;;;;;;;3.35;1.95;;;24.70;66.00;;;;;;4957661;28;20042;-74
2022/08/09 08:07:04;;;;;;;4.00;1.75;;;24.90;63.90;;;;;;4957588;28;20031;-74
2022/08/09 08:09:30;;;;;;;4.13;1.90;;;25.10;63.80;;;;;;4957455;28;20036;-74
2022/08/09 08:11:56;;;;;;;3.80;2.20;;;25.30;63.50;;;;;;4957248;28;20039;-79
2022/08/09 08:14:21;;;;;;;3.75;1.90;;;25.50;62.60;;;;;;4957201;28;20043;-72
2022/08/09 08:16:47;;;;;;;5.75;2.10;;;25.60;61.90;;;;;;4956861;28;20120;-75
2022/08/09 08:19:12;;;;;;;3.88;1.80;;;25.50;62.60;;;;;;4957928;28;20110;-78
2022/08/09 08:21:38;;;;;;;1.85;1.70;;;25.80;61.50;;;;;;4957730;28;20064;-75
2022/08/09 08:24:04;;;;;;;2.67;1.75;;;26.00;61.90;;;;;;4957676;28;20033;-75
2022/08/09 08:26:32;;;;;;;2.47;2.05;;;26.20;60.60;;;;;;4957641;28;20044;-75
2022/08/09 08:28:57;;;;;;;2.88;1.80;;;26.30;60.70;;;;;;4957532;28;20036;-75
2022/08/09 08:31:23;;;;;;;2.08;1.70;;;26.60;60.80;;;;;;4957070;28;20061;-78
2022/08/09 08:33:48;;;;;;;2.40;1.75;;;26.80;59.40;;;;;;4957630;28;20103;-74
2022/08/09 08:36:14;;;;;;;3.30;1.60;;;26.90;59.50;;;;;;4957308;28;20050;-75
2022/08/09 08:38:39;;;;;;;3.88;1.80;;;27.10;57.90;;;;;;4957646;28;20039;-74
2022/08/09 08:41:06;;;;;;;3.10;1.92;;;27.30;58.50;;;;;;4957543;28;20035;-74
2022/08/09 08:43:32;;;;;;;2.95;1.90;;;27.50;57.50;;;;;;4957456;28;20510;-74
2022/08/09 08:46:04;;;;;;;2.83;1.60;;;27.60;57.50;;;;;;4957052;28;20035;-75
2022/08/09 08:48:31;;;;;;;2.05;1.90;;;27.70;57.30;;;;;;4957623;28;20098;-74
2022/08/09 08:50:57;;;;;;;2.33;1.70;;;27.90;56.60;;;;;;4957347;28;20035;-76
2022/08/09 08:53:23;;;;;;;1.88;1.73;;;28.00;56.60;;;;;;4957305;28;20039;-76
2022/08/09 08:55:49;;;;;;;3.03;1.65;;;28.20;55.90;;;;;;4954744;28;20054;-76
2022/08/09 08:58:15;;;;;;;3.53;1.60;;;28.20;55.40;;;;;;4938421;28;20063;-74
2022/08/09 09:00:42;;;;;;;3.28;1.80;;;28.00;55.40;;;;;;4937349;28;20474;-75
2022/08/09 09:03:10;;;;;;;3.28;1.88;;;28.30;55.20;;;;;;4937909;28;20032;-75
2022/08/09 09:05:35;;;;;;;1.95;1.75;;;28.50;55.40;;;;;;4937761;28;20058;-75
2022/08/09 09:08:02;;;;;;;1.85;1.60;;;28.60;55.60;;;;;;4938308;28;20039;-75
2022/08/09 09:10:29;;;;;;;4.40;1.60;;;28.60;54.60;;;;;;4938126;28;20036;-75
2022/08/09 09:12:55;;;;;;;1.92;1.80;;;28.80;54.40;;;;;;4938127;28;20157;-75
2022/08/09 09:15:20;;;;;;;5.45;1.60;;;28.80;53.80;;;;;;4937565;28;20068;-75
2022/08/09 09:17:46;;;;;;;4.20;1.70;;;28.90;53.20;;;;;;4937858;28;20131;-75
2022/08/09 09:20:13;;;;;;;2.17;1.58;;;28.90;53.70;;;;;;4937586;28;20172;-75
2022/08/09 09:22:56;;;;;;;3.25;1.92;;;29.00;52.30;;;;;;4937582;28;20043;-75
2022/08/09 09:25:40;;;;;;;5.25;2.90;;;29.20;53.30;;;;;;4937161;28;20469;-75
2022/08/09 09:28:07;;;;;;;1.88;1.70;;;29.40;53.40;;;;;;4937643;28;20754;-75
2022/08/09 09:30:33;;;;;;;4.65;1.85;;;29.60;51.80;;;;;;4937239;28;20127;-75
2022/08/09 09:33:11;;;;;;;4.53;1.50;;;29.50;51.20;;;;;;4937538;28;20090;-75
2022/08/09 09:35:56;;;;;;;4.15;1.92;;;29.40;52.00;;;;;;4937362;28;20192;-75
2022/08/09 09:38:22;;;;;;;4.22;1.80;;;29.40;51.40;;;;;;4936063;28;20146;-75
2022/08/09 09:40:48;;;;;;;2.42;1.67;;;29.40;52.70;;;;;;4937188;28;20036;-74
2022/08/09 09:43:18;;;;;;;3.13;1.85;;;29.50;51.30;;;;;;4936973;29;20040;-74
2022/08/09 09:45:50;;;;;;;2.85;2.17;;;29.40;50.70;;;;;;4950927;28;20036;-74
2022/08/09 09:48:16;;;;;;;4.82;2.00;;;29.60;50.50;;;;;;4955766;28;20032;-73
2022/08/09 09:50:46;;;;;;;2.75;1.90;;;29.60;50.40;;;;;;4955901;28;20031;-74
2022/08/09 09:53:20;;;;;;;1.95;1.75;;;29.70;51.60;;;;;;4955991;28;20095;-74
2022/08/09 09:55:54;;;;;;;3.90;2.30;;;29.90;51.10;;;;;;4954166;28;20068;-74
2022/08/09 09:58:20;;;;;;;4.20;2.17;;;30.10;50.20;;;;;;4955687;28;20027;-74
2022/08/09 10:00:46;;;;;;;1.98;1.75;;;30.20;50.20;;;;;;4955690;28;20119;-74
2022/08/09 10:03:12;;;;;;;5.10;2.08;;;30.10;50.60;;;;;;4955861;28;20549;-74
2022/08/09 10:05:56;;;;;;;3.67;1.90;;;30.20;50.60;;;;;;4955981;28;20091;-74
2022/08/09 10:08:23;;;;;;;2.50;2.10;;;30.40;50.10;;;;;;4956224;28;20031;-76
2022/08/09 10:10:49;;;;;;;2.55;1.65;;;30.40;50.50;;;;;;4955966;28;20039;-74
2022/08/09 10:13:14;;;;;;;5.05;1.90;;;30.30;49.60;;;;;;4954875;28;20032;-75
2022/08/09 10:15:50;;;;;;;5.03;1.90;;;30.60;49.70;;;;;;4955635;28;20046;-75
2022/08/09 10:18:17;;;;;;;1.85;1.63;;;31.00;48.50;;;;;;4956174;28;20568;-75
2022/08/09 10:20:42;;;;;;;2.42;1.75;;;31.10;48.10;;;;;;4956118;28;20032;-74
2022/08/09 10:23:20;;;;;;;2.35;1.80;;;31.10;48.20;;;;;;4956054;28;20486;-74
2022/08/09 10:25:46;;;;;;;4.20;1.77;;;31.10;47.50;;;;;;4976645;23;20047;-78
2022/08/09 10:28:12;;;;;;;3.35;1.60;;;30.90;47.80;;;;;;4974668;28;20039;-74
2022/08/09 10:30:38;;;;;;;2.75;1.60;;;31.10;48.00;;;;;;4974627;28;20027;-73
2022/08/09 10:33:04;;;;;;;5.28;1.73;;;31.10;47.30;;;;;;4974735;28;20518;-73
2022/08/09 10:35:33;;;;;;;4.32;1.60;;;31.20;47.80;;;;;;4974104;28;20051;-73
2022/08/09 10:38:00;;;;;;;2.97;2.00;;;31.10;47.50;;;;;;4974817;28;20035;-75
2022/08/09 10:40:29;;;;;;;4.25;1.70;;;31.40;46.60;;;;;;4974695;28;20118;-74
2022/08/09 10:42:54;;;;;;;3.10;1.50;;;31.40;46.60;;;;;;4974451;28;20035;-75
2022/08/09 10:45:21;;;;;;;3.85;1.70;;;31.60;46.80;;;;;;4974345;28;20090;-74
2022/08/09 10:48:16;;;;;;;3.63;1.55;;;31.70;45.60;;;;;;4973151;28;20095;-74
2022/08/09 10:53:50;;;;;;;5.65;1.95;;;31.80;45.50;;;;;;4975029;28;20031;-74
2022/08/09 10:56:22;;;;;;;2.88;1.75;;;32.00;45.90;;;;;;4974274;28;20130;-75
2022/08/09 10:58:47;;;;;;;2.50;1.70;;;32.00;45.00;;;;;;4975339;28;20110;-74
2022/08/09 11:01:31;;;;;;;2.03;1.67;;;32.00;45.60;;;;;;4975179;28;20170;-76
2022/08/09 11:04:09;;;;;;;3.63;1.63;;;31.90;46.50;;;;;;4974491;28;20038;-75
2022/08/09 11:06:36;;;;;;;4.28;1.58;;;31.90;45.20;;;;;;4974568;28;20043;-74
2022/08/09 11:09:03;;;;;;;2.45;1.48;;;32.00;45.00;;;;;;4973292;28;20027;-75
2022/08/09 11:11:53;;;;;;;2.83;1.73;;;32.20;44.10;;;;;;4974524;28;20035;-77
2022/08/09 11:14:40;;;;;;;3.47;1.63;;;32.60;44.50;;;;;;4974604;28;20166;-75
2022/08/09 11:17:12;;;;;;;2.30;1.55;;;32.80;42.30;;;;;;4973152;28;20515;-75
2022/08/09 11:19:57;;;;;;;1.70;1.60;;;32.80;42.40;;;;;;4975048;28;20031;-74
2022/08/09 11:22:42;;;;;;;3.22;1.60;;;32.70;42.00;;;;;;4974664;28;20524;-74
2022/08/09 11:25:15;;;;;;;4.00;1.67;;;32.60;41.80;;;;;;4975121;28;20040;-74
2022/08/09 11:27:44;;;;;;;2.78;1.60;;;32.80;41.80;;;;;;4977909;28;20776;-74
2022/08/09 11:30:11;;;;;;;2.35;1.60;;;32.70;41.10;;;;;;4977784;28;20028;-74
2022/08/09 11:32:53;;;;;;;3.78;1.65;;;32.80;41.20;;;;;;4977690;28;20074;-74
2022/08/09 11:35:34;;;;;;;2.35;1.70;;;33.10;40.50;;;;;;4977487;28;20509;-75
2022/08/09 11:38:17;;;;;;;1.98;1.48;;;33.40;40.80;;;;;;4976272;28;20046;-74
2022/08/09 11:40:43;;;;;;;3.38;1.42;;;33.50;40.60;;;;;;4977561;28;20844;-74
2022/08/09 11:43:13;;;;;;;5.43;1.80;;;33.10;40.20;;;;;;4977524;28;20111;-74
2022/08/09 11:45:42;;;;;;;2.78;1.52;;;33.40;40.80;;;;;;4977079;28;20532;-74
2022/08/09 11:48:10;;;;;;;2.83;1.52;;;33.00;41.50;;;;;;4977596;28;20039;-74
2022/08/09 11:50:57;;;;;;;3.05;1.73;;;33.30;41.20;;;;;;4976097;28;20114;-74
2022/08/09 11:53:28;;;;;;;5.72;1.40;;;33.60;40.00;;;;;;4977424;28;20500;-74
2022/08/09 11:55:56;;;;;;;1.92;1.50;;;33.50;39.00;;;;;;4976816;28;20051;-74
2022/08/09 11:58:29;;;;;;;2.85;1.50;;;33.20;39.50;;;;;;4977362;28;20038;-74
2022/08/09 12:01:00;;;;;;;1.50;1.40;;;33.10;40.40;;;;;;4975962;28;20031;-74
2022/08/09 12:03:27;;;;;;;4.28;1.77;;;33.30;39.30;;;;;;4976037;28;20117;-74
2022/08/09 12:05:55;;;;;;;4.13;1.75;;;33.30;39.70;;;;;;4976925;28;20031;-74
2022/08/09 12:08:22;;;;;;;3.45;1.50;;;33.50;39.50;;;;;;4977343;28;20075;-74
2022/08/09 12:10:54;;;;;;;3.38;1.70;;;33.40;39.30;;;;;;4977434;28;20166;-74
2022/08/09 12:13:40;;;;;;;2.92;1.50;;;33.20;39.40;;;;;;4977192;28;20521;-74
2022/08/09 12:16:08;;;;;;;2.70;1.25;;;33.10;38.80;;;;;;4975577;28;20137;-74
2022/08/09 12:18:38;;;;;;;3.90;1.58;;;33.30;40.60;;;;;;4976860;28;20139;-74
2022/08/09 12:21:07;;;;;;;2.72;1.30;;;33.70;39.90;;;;;;4977009;28;20038;-74
2022/08/09 12:23:33;;;;;;;2.97;1.45;;;33.80;39.20;;;;;;4977177;28;20027;-74
2022/08/09 12:26:01;;;;;;;3.97;1.63;;;34.30;39.10;;;;;;4976185;28;20046;-74
2022/08/09 12:28:27;;;;;;;3.08;1.77;;;34.30;39.10;;;;;;4975784;28;20424;-74
2022/08/09 12:30:55;;;;;;;3.20;1.20;;;34.50;38.80;;;;;;4977031;28;20039;-75
2022/08/09 12:33:22;;;;;;;3.20;1.45;;;34.50;39.40;;;;;;4977107;28;20030;-75
2022/08/09 12:35:50;;;;;;;1.50;1.40;;;34.70;38.20;;;;;;4975528;28;20051;-75
2022/08/09 12:38:29;;;;;;;1.90;1.50;;;34.50;38.90;;;;;;4976824;28;20078;-74
2022/08/09 12:40:56;;;;;;;2.58;1.98;;;34.40;38.30;;;;;;4976972;28;20040;-74
2022/08/09 12:43:27;;;;;;;3.40;1.48;;;34.30;38.60;;;;;;4976358;28;20494;-75
2022/08/09 12:45:56;;;;;;;3.83;1.70;;;33.80;38.90;;;;;;4976220;28;20475;-75
2022/08/09 12:48:22;;;;;;;3.15;1.40;;;34.20;39.00;;;;;;4976574;28;20468;-75
2022/08/09 12:50:49;;;;;;;2.92;1.42;;;34.40;39.20;;;;;;4976743;28;20135;-75
2022/08/09 12:53:33;;;;;;;3.25;1.63;;;34.60;37.70;;;;;;4976685;28;20114;-75
2022/08/09 12:56:05;;;;;;;2.75;1.50;;;34.60;38.40;;;;;;4974761;28;20047;-75
2022/08/09 12:58:32;;;;;;;2.38;1.63;;;34.50;38.20;;;;;;4976848;28;20486;-75
2022/08/09 13:00:57;;;;;;;2.55;1.40;;;34.50;37.90;;;;;;4976348;28;20043;-75
2022/08/09 13:03:32;;;;;;;11.25;1.83;;;34.60;38.00;;;;;;4976450;28;20035;-75
2022/08/09 13:05:58;;;;;;;2.00;1.50;;;34.30;36.90;;;;;;4974718;28;20035;-75
2022/08/09 13:08:24;;;;;;;1.88;1.50;;;34.20;38.10;;;;;;4974659;28;20054;-75
2022/08/09 13:10:59;;;;;;;2.75;1.50;;;34.10;37.90;;;;;;4974870;28;20035;-75
2022/08/09 13:13:30;;;;;;;1.83;1.40;;;34.10;38.00;;;;;;4976506;28;20031;-75
2022/08/09 13:16:05;;;;;;;1.40;1.30;;;34.30;37.60;;;;;;4975537;28;20374;-75
2022/08/09 13:18:41;;;;;;;2.47;1.30;;;34.70;38.00;;;;;;4975918;28;20491;-74
2022/08/09 13:21:27;;;;;;;2.13;1.40;;;34.70;37.00;;;;;;4974795;28;20130;-75
2022/08/09 13:24:01;;;;;;;3.78;1.30;;;34.50;37.50;;;;;;4976197;28;20378;-75
2022/08/09 13:26:46;;;;;;;2.03;1.40;;;34.60;36.90;;;;;;4974130;28;20046;-75
2022/08/09 13:29:17;;;;;;;1.58;1.35;;;34.50;36.90;;;;;;4976110;28;20106;-73
2022/08/09 13:32:03;;;;;;;2.55;1.40;;;34.60;37.20;;;;;;4976215;28;20572;-74
2022/08/09 13:34:39;;;;;;;4.82;1.50;;;34.70;37.10;;;;;;4975737;28;20042;-74
2022/08/09 13:37:06;;;;;;;2.75;1.35;;;35.20;37.00;;;;;;4975251;28;20077;-74
2022/08/09 13:39:34;;;;;;;1.75;1.40;;;35.50;35.80;;;;;;4975940;28;20043;-76
2022/08/09 13:42:04;;;;;;;3.45;1.30;;;36.10;35.60;;;;;;4975886;28;20039;-73
2022/08/09 13:44:31;;;;;;;1.83;1.38;;;36.70;34.50;;;;;;4975981;28;20031;-73
2022/08/09 13:46:57;;;;;;;2.78;1.60;;;37.30;33.60;;;;;;4974120;28;20122;-73
2022/08/09 13:49:22;;;;;;;4.82;1.40;;;37.30;34.10;;;;;;4975951;28;20114;-73
2022/08/09 13:51:48;;;;;;;1.52;1.40;;;37.40;33.70;;;;;;4975652;28;20058;-73
2022/08/09 13:54:14;;;;;;;2.97;1.48;;;38.00;33.30;;;;;;4975665;28;20032;-74
2022/08/09 13:56:39;;;;;;;2.03;1.30;;;38.40;33.20;;;;;;4975453;28;20050;-74
2022/08/09 13:59:05;;;;;;;2.08;1.50;;;38.70;33.10;;;;;;4975809;28;20031;-74
2022/08/09 14:01:31;;;;;;;2.85;1.33;;;38.70;32.70;;;;;;4975469;28;20043;-74
2022/08/09 14:03:56;;;;;;;4.32;1.45;;;38.80;31.50;;;;;;4975427;28;20039;-74
2022/08/09 14:06:22;;;;;;;2.53;1.50;;;39.10;31.40;;;;;;4973580;28;20087;-74
2022/08/09 14:08:47;;;;;;;1.85;1.65;;;39.50;31.00;;;;;;4975392;28;20027;-74
2022/08/09 14:11:14;;;;;;;2.70;1.30;;;39.90;30.50;;;;;;4974213;28;20078;-74
2022/08/09 14:13:40;;;;;;;1.60;1.50;;;39.70;30.00;;;;;;4974151;28;20058;-74
2022/08/09 14:16:06;;;;;;;2.78;1.30;;;40.60;31.20;;;;;;4975096;28;20071;-74
2022/08/09 14:18:32;;;;;;;2.10;1.67;;;41.00;30.20;;;;;;4975505;28;20165;-74
2022/08/09 14:20:57;;;;;;;2.95;1.67;;;41.00;29.60;;;;;;4975365;28;20047;-74
2022/08/09 14:23:23;;;;;;;4.25;1.60;;;40.70;30.00;;;;;;4975414;28;20035;-74
2022/08/09 14:25:50;;;;;;;3.92;1.98;;;41.40;29.10;;;;;;4974470;28;20381;-75
2022/08/09 14:28:16;;;;;;;2.88;1.60;;;41.20;29.70;;;;;;4975403;28;20035;-75
2022/08/09 14:30:42;;;;;;;2.30;1.63;;;41.80;28.70;;;;;;4975287;28;20043;-75
2022/08/09 14:33:07;;;;;;;3.42;1.60;;;41.90;28.50;;;;;;4975381;28;20548;-75
2022/08/09 14:35:33;;;;;;;4.18;1.73;;;42.20;28.20;;;;;;4974682;28;20040;-75
2022/08/09 14:37:58;;;;;;;2.65;1.60;;;42.00;28.10;;;;;;4975171;28;20074;-75
2022/08/09 14:40:24;;;;;;;1.90;1.70;;;42.90;28.20;;;;;;4975330;28;20105;-75
2022/08/09 14:42:50;;;;;;;2.25;1.92;;;43.40;27.50;;;;;;4975277;28;20059;-75
2022/08/09 14:45:15;;;;;;;2.35;1.50;;;41.80;27.80;;;;;;4974881;28;20035;-75
2022/08/09 14:47:41;;;;;;;3.70;1.90;;;41.70;28.70;;;;;;4975135;28;20039;-74
2022/08/09 14:50:07;;;;;;;2.90;1.73;;;41.90;28.10;;;;;;4975017;28;20031;-74
2022/08/09 14:52:34;;;;;;;2.05;1.85;;;41.80;28.90;;;;;;4974831;28;20027;-75
2022/08/09 14:54:59;;;;;;;2.42;1.80;;;42.10;27.90;;;;;;4974586;28;20043;-75
2022/08/09 14:57:25;;;;;;;3.72;2.15;;;42.60;27.80;;;;;;4974878;28;20087;-75
2022/08/09 14:59:51;;;;;;;3.05;2.17;;;42.70;27.60;;;;;;4977554;28;20031;-75
2022/08/09 15:02:16;;;;;;;2.00;1.90;;;42.80;27.70;;;;;;4978299;28;20035;-75
2022/08/09 15:04:43;;;;;;;2.45;2.03;;;42.00;27.70;;;;;;4978004;28;20036;-75
2022/08/09 15:07:08;;;;;;;2.28;2.08;;;43.20;27.40;;;;;;4978045;28;20091;-75
2022/08/09 15:09:34;;;;;;;3.85;2.00;;;43.00;28.10;;;;;;4978250;28;20090;-75
2022/08/09 15:11:59;;;;;;;3.30;2.20;;;42.30;27.70;;;;;;4978167;28;20079;-74
2022/08/09 15:14:25;;;;;;;5.47;2.00;;;41.80;28.00;;;;;;4977889;28;20035;-74
2022/08/09 15:16:51;;;;;;;3.17;2.00;;;42.50;27.80;;;;;;4977836;28;20127;-79
2022/08/09 15:19:17;;;;;;;4.40;2.00;;;43.40;27.30;;;;;;4978241;28;20509;-74
2022/08/09 15:21:44;;;;;;;2.20;2.00;;;44.30;27.80;;;;;;4978258;28;20823;-74
2022/08/09 15:24:09;;;;;;;3.05;2.13;;;44.70;26.50;;;;;;4974628;28;20157;-75
2022/08/09 15:26:35;;;;;;;3.05;1.90;;;44.20;26.20;;;;;;4992246;28;20151;-75
2022/08/09 15:29:02;;;;;;;2.53;1.80;;;44.80;26.70;;;;;;4978316;28;20667;-75
2022/08/09 15:31:28;;;;;;;2.28;1.95;;;44.60;26.50;;;;;;4972958;28;20178;-75
2022/08/09 15:33:53;;;;;;;2.92;2.10;;;45.30;26.10;;;;;;4983850;28;20126;-72
2022/08/09 15:36:19;;;;;;;4.78;2.00;;;44.70;25.90;;;;;;4977692;28;20042;-76
2022/08/09 15:38:44;;;;;;;2.65;2.20;;;44.60;26.00;;;;;;4977514;28;20649;-73
2022/08/09 15:41:10;;;;;;;6.10;2.00;;;44.30;26.60;;;;;;4978435;28;20106;-81
2022/08/09 15:43:37;;;;;;;2.33;2.08;;;43.90;27.00;;;;;;4978799;28;20031;-81
2022/08/09 15:46:04;;;;;;;2.95;2.20;;;44.10;27.40;;;;;;4970363;28;20040;-75
2022/08/09 15:48:29;;;;;;;3.00;2.00;;;44.40;26.80;;;;;;4969906;28;20036;-73
2022/08/09 15:50:55;;;;;;;3.17;2.40;;;44.20;27.60;;;;;;4978506;28;20039;-77
2022/08/09 15:53:22;;;;;;;4.85;2.05;;;44.80;26.40;;;;;;4964861;28;20039;-76
2022/08/09 15:55:48;;;;;;;4.00;2.20;;;44.10;26.90;;;;;;4956482;28;20139;-72
2022/08/09 15:58:14;;;;;;;2.95;2.15;;;44.30;27.20;;;;;;4958635;28;20042;-76
2022/08/09 16:00:39;;;;;;;4.25;2.05;;;44.30;27.10;;;;;;4958030;28;20042;-75
2022/08/09 16:03:05;;;;;;;8.07;2.13;;;44.30;27.10;;;;;;4958123;28;20042;-71
2022/08/09 16:05:31;;;;;;;3.88;2.13;;;43.90;26.90;;;;;;4958094;28;20075;-74
2022/08/09 16:07:57;;;;;;;5.93;2.13;;;43.50;27.10;;;;;;4958727;28;20087;-72
2022/08/09 16:10:23;;;;;;;2.85;2.17;;;43.50;27.70;;;;;;4955670;28;20521;-76
2022/08/09 16:12:48;;;;;;;2.03;1.83;;;43.30;27.60;;;;;;4965105;28;20050;-78
2022/08/09 16:15:14;;;;;;;3.72;2.22;;;43.70;27.90;;;;;;4978368;28;20122;-75
2022/08/09 16:17:39;;;;;;;1.95;1.80;;;44.70;27.20;;;;;;4973474;28;20051;-74
2022/08/09 16:20:08;;;;;;;3.50;1.75;;;44.40;26.90;;;;;;4958204;28;20446;-81
2022/08/09 16:22:34;;;;;;;2.85;1.70;;;44.70;26.30;;;;;;4959213;28;20465;-74
2022/08/09 16:27:35;;;;;;;4.18;2.08;;;44.20;26.80;;;;;;4975891;28;20061;-73
2022/08/09 16:30:05;;;;;;;31.65;3.22;;;43.60;27.60;;;;;;4979063;28;20106;-80
2022/08/09 16:35:15;;;;;;;2.22;2.03;;;43.40;27.60;;;;;;4958680;28;20044;-76
2022/08/09 16:37:40;;;;;;;2.97;1.98;;;43.90;27.30;;;;;;4962689;28;20051;-73
2022/08/09 16:40:08;;;;;;;2.10;1.80;;;43.80;27.30;;;;;;4978849;28;20042;-74
2022/08/09 16:42:34;;;;;;;3.30;2.03;;;43.40;27.80;;;;;;4968342;28;20052;-75
2022/08/09 16:45:00;;;;;;;2.58;2.00;;;42.70;27.90;;;;;;4972719;28;20035;-75
2022/08/09 16:47:26;;;;;;;2.17;1.70;;;42.20;28.40;;;;;;4975351;28;20501;-75
2022/08/09 16:49:51;;;;;;;5.25;1.90;;;40.90;29.20;;;;;;4959539;28;20472;-74
2022/08/09 16:52:17;;;;;;;3.60;1.65;;;40.30;29.10;;;;;;4994218;28;20580;-74
2022/08/09 16:54:42;;;;;;;3.03;1.77;;;38.50;30.30;;;;;;4976392;28;20054;-74
2022/08/09 16:57:08;;;;;;;3.72;1.85;;;37.00;32.20;;;;;;4976439;28;20382;-74
2022/08/09 16:59:33;;;;;;;3.67;1.80;;;36.00;33.20;;;;;;4959969;28;20043;-73